createdAt,value
2022-12-18T00:01:52.756Z,100.00
2022-12-18T00:04:53.708Z,100.00
2022-12-18T00:07:53.766Z,100.00
2022-12-18T00:10:53.736Z,100.00
2022-12-18T00:14:00.800Z,100.00
2022-12-18T00:17:01.743Z,100.00
2022-12-18T00:20:01.814Z,100.00
2022-12-18T00:23:01.743Z,100.00
2022-12-18T00:26:01.764Z,100.00
2022-12-18T00:29:01.735Z,100.00
2022-12-18T00:32:01.789Z,100.00
2022-12-18T00:35:01.734Z,100.00
2022-12-18T00:38:01.693Z,100.00
2022-12-18T00:41:01.750Z,100.00
2022-12-18T00:44:01.696Z,100.00
2022-12-18T00:47:01.691Z,100.00
2022-12-18T00:50:01.718Z,100.00
2022-12-18T00:53:01.761Z,100.00
2022-12-18T00:56:04.741Z,100.00
2022-12-18T00:59:04.706Z,100.00
2022-12-18T01:02:05.827Z,100.00
2022-12-18T01:05:05.759Z,100.00
2022-12-18T01:08:05.747Z,100.00
2022-12-18T01:11:05.734Z,100.00
2022-12-18T01:14:07.719Z,100.00
2022-12-18T01:17:09.729Z,100.00
2022-12-18T01:20:09.747Z,100.00
2022-12-18T01:23:09.732Z,100.00
2022-12-18T01:26:09.722Z,100.00
2022-12-18T01:29:10.738Z,100.00
2022-12-18T01:32:10.756Z,100.00
2022-12-18T01:35:10.733Z,100.00
2022-12-18T01:38:10.745Z,100.00
2022-12-18T01:41:14.734Z,100.00
2022-12-18T01:44:14.711Z,100.00
2022-12-18T01:47:14.700Z,100.00
2022-12-18T01:50:18.719Z,100.00
2022-12-18T01:53:22.729Z,100.00
2022-12-18T01:56:22.727Z,100.00
2022-12-18T01:59:24.698Z,100.00
2022-12-18T02:02:24.872Z,100.00
2022-12-18T02:05:26.742Z,100.00
2022-12-18T02:08:38.690Z,100.00
2022-12-18T02:11:55.713Z,100.00
2022-12-18T02:14:59.723Z,100.00
2022-12-18T02:18:22.695Z,100.00
2022-12-18T02:21:41.721Z,100.00
2022-12-18T02:24:48.700Z,100.00
2022-12-18T02:27:49.723Z,100.00
2022-12-18T02:30:49.800Z,100.00
2022-12-18T02:33:50.675Z,100.00
2022-12-18T02:36:53.742Z,100.00
2022-12-18T02:39:54.713Z,100.00
2022-12-18T02:42:54.737Z,100.00
2022-12-18T02:46:04.745Z,100.00
2022-12-18T02:49:04.718Z,100.00
2022-12-18T02:52:19.686Z,100.00
2022-12-18T02:55:42.703Z,100.00
2022-12-18T02:59:04.722Z,100.00
2022-12-18T03:02:05.785Z,100.00
2022-12-18T03:05:12.705Z,100.00
2022-12-18T03:08:17.679Z,100.00
2022-12-18T03:11:19.744Z,100.00
2022-12-18T03:14:21.702Z,100.00
2022-12-18T03:17:25.725Z,100.00
2022-12-18T03:20:29.702Z,100.00
2022-12-18T03:23:36.731Z,100.00
2022-12-18T03:26:39.682Z,100.00
2022-12-18T03:30:03.721Z,100.00
2022-12-18T03:33:08.683Z,100.00
2022-12-18T03:36:09.703Z,100.00
2022-12-18T03:39:09.736Z,100.00
2022-12-18T03:42:19.730Z,100.00
2022-12-18T03:45:40.759Z,100.00
2022-12-18T03:48:52.692Z,100.00
2022-12-18T03:52:00.712Z,100.00
2022-12-18T03:55:00.728Z,100.00
2022-12-18T03:58:01.730Z,100.00
2022-12-18T04:01:05.773Z,100.00
2022-12-18T04:04:06.744Z,100.00
2022-12-18T04:07:07.670Z,100.00
2022-12-18T04:10:10.711Z,100.00
2022-12-18T04:13:12.708Z,100.00
2022-12-18T04:16:12.742Z,100.00
2022-12-18T04:19:12.679Z,100.00
2022-12-18T04:22:14.688Z,100.00
2022-12-18T04:25:15.671Z,100.00
2022-12-18T04:28:16.684Z,100.00
2022-12-18T04:31:16.714Z,100.00
2022-12-18T04:34:16.683Z,100.00
2022-12-18T04:37:16.691Z,100.00
2022-12-18T04:40:17.681Z,100.00
2022-12-18T04:43:17.750Z,100.00
2022-12-18T04:46:18.681Z,100.00
2022-12-18T04:49:18.709Z,100.00
2022-12-18T04:52:18.659Z,100.00
2022-12-18T04:55:18.711Z,100.00
2022-12-18T04:58:18.701Z,100.00
2022-12-18T05:01:18.838Z,100.00
2022-12-18T05:04:18.699Z,100.00
2022-12-18T05:07:19.719Z,100.00
2022-12-18T05:10:19.701Z,100.00
2022-12-18T05:13:19.730Z,100.00
2022-12-18T05:16:19.720Z,100.00
2022-12-18T05:19:19.718Z,100.00
2022-12-18T05:22:19.696Z,100.00
2022-12-18T05:25:19.661Z,100.00
2022-12-18T05:28:20.681Z,100.00
2022-12-18T05:31:20.700Z,100.00
2022-12-18T05:34:20.702Z,100.00
2022-12-18T05:37:20.694Z,100.00
2022-12-18T05:40:20.722Z,100.00
2022-12-18T05:43:21.536Z,100.00
2022-12-18T05:46:24.768Z,100.00
2022-12-18T05:49:24.650Z,100.00
2022-12-18T05:52:24.693Z,100.00
2022-12-18T05:55:24.686Z,100.00
2022-12-18T05:58:25.675Z,100.00
2022-12-18T06:01:31.750Z,100.00
2022-12-18T06:04:32.715Z,100.00
2022-12-18T06:07:32.698Z,100.00
2022-12-18T06:10:32.656Z,100.00
2022-12-18T06:13:33.697Z,100.00
2022-12-18T06:16:33.701Z,100.00
2022-12-18T06:19:33.714Z,100.00
2022-12-18T06:22:33.845Z,100.00
2022-12-18T06:25:33.663Z,100.00
2022-12-18T06:28:33.695Z,100.00
2022-12-18T06:31:26.868Z,100.00
2022-12-18T06:34:26.710Z,100.00
2022-12-18T06:37:26.678Z,100.00
2022-12-18T06:40:26.656Z,100.00
2022-12-18T06:43:26.651Z,100.00
2022-12-18T06:46:26.680Z,100.00
2022-12-18T06:49:30.459Z,100.00
2022-12-18T06:52:30.661Z,100.00
2022-12-18T06:55:30.721Z,100.00
2022-12-18T06:58:30.661Z,100.00
2022-12-18T07:01:30.776Z,100.00
2022-12-18T07:04:30.695Z,100.00
2022-12-18T07:07:30.700Z,100.00
2022-12-18T07:10:23.694Z,100.00
2022-12-18T07:13:10.672Z,100.00
2022-12-18T07:16:17.125Z,100.00
2022-12-18T07:19:20.655Z,100.00
2022-12-18T07:22:20.642Z,100.00
2022-12-18T07:25:21.674Z,100.00
2022-12-18T07:28:22.680Z,100.00
2022-12-18T07:31:27.708Z,100.00
2022-12-18T07:34:28.666Z,100.00
2022-12-18T07:37:28.657Z,100.00
2022-12-18T07:40:28.723Z,100.00
2022-12-18T07:43:28.700Z,100.00
2022-12-18T07:46:28.658Z,100.00
2022-12-18T07:49:28.714Z,100.00
2022-12-18T07:52:28.690Z,100.00
2022-12-18T07:55:35.325Z,100.00
2022-12-18T07:58:41.683Z,99.50
2022-12-18T08:01:41.771Z,97.91
2022-12-18T08:04:42.656Z,97.86
2022-12-18T08:07:42.673Z,96.20
2022-12-18T08:10:42.714Z,96.16
2022-12-18T08:13:42.922Z,95.06
2022-12-18T08:16:42.733Z,88.80
2022-12-18T08:19:42.651Z,84.00
2022-12-18T08:22:44.670Z,79.91
2022-12-18T08:25:44.642Z,80.44
2022-12-18T08:28:44.662Z,80.37
2022-12-18T08:31:44.746Z,72.75
2022-12-18T08:34:44.699Z,72.04
2022-12-18T08:37:44.686Z,70.84
2022-12-18T08:40:44.656Z,66.51
2022-12-18T08:44:02.687Z,66.05
2022-12-18T08:47:02.633Z,65.20
2022-12-18T08:50:02.691Z,62.38
2022-12-18T08:53:02.660Z,62.24
2022-12-18T08:56:02.718Z,62.75
2022-12-18T08:59:06.669Z,59.60
2022-12-18T09:02:07.764Z,61.18
2022-12-18T09:05:07.639Z,60.55
2022-12-18T09:08:07.686Z,61.36
2022-12-18T09:11:07.707Z,59.01
2022-12-18T09:14:07.654Z,57.39
2022-12-18T09:17:07.717Z,57.69
2022-12-18T09:20:07.665Z,56.60
2022-12-18T09:23:07.650Z,57.43
2022-12-18T09:26:13.674Z,55.62
2022-12-18T09:29:14.697Z,55.30
2022-12-18T09:32:20.516Z,55.01
2022-12-18T09:35:21.689Z,53.53
2022-12-18T09:38:23.683Z,52.56
2022-12-18T09:41:51.853Z,52.39
2022-12-18T09:44:58.722Z,53.26
2022-12-18T09:47:59.645Z,49.98
2022-12-18T09:50:59.694Z,49.04
2022-12-18T09:54:03.707Z,50.48
2022-12-18T09:57:03.676Z,50.36
2022-12-18T10:00:11.656Z,49.24
2022-12-18T10:03:18.679Z,49.38
2022-12-18T10:07:05.673Z,48.14
2022-12-18T10:10:19.650Z,46.74
2022-12-18T10:13:21.705Z,48.37
2022-12-18T10:16:27.705Z,48.83
2022-12-18T10:19:46.672Z,49.11
2022-12-18T10:23:14.676Z,48.82
2022-12-18T10:26:16.665Z,47.72
2022-12-18T10:29:24.678Z,47.20
2022-12-18T10:32:46.654Z,47.82
2022-12-18T10:35:46.666Z,47.98
2022-12-18T10:38:46.714Z,47.71
2022-12-18T10:41:46.651Z,47.23
2022-12-18T10:44:46.695Z,47.73
2022-12-18T10:47:48.649Z,48.54
2022-12-18T10:54:21.670Z,48.55
2022-12-18T10:57:48.703Z,49.03
2022-12-18T11:00:51.653Z,48.71
2022-12-18T11:04:01.682Z,48.35
2022-12-18T11:07:12.677Z,48.62
2022-12-18T11:10:16.619Z,48.74
2022-12-18T11:13:28.707Z,49.66
2022-12-18T11:16:33.704Z,50.54
2022-12-18T11:19:50.690Z,50.47
2022-12-18T11:22:51.640Z,51.50
2022-12-18T11:25:51.668Z,53.08
2022-12-18T11:28:54.663Z,52.23
2022-12-18T11:31:54.654Z,54.67
2022-12-18T11:34:59.239Z,54.26
2022-12-18T11:38:07.652Z,55.58
2022-12-18T11:41:51.718Z,56.99
2022-12-18T11:45:04.688Z,58.76
2022-12-18T11:48:30.631Z,59.86
2022-12-18T11:51:40.653Z,59.77
2022-12-18T11:54:40.693Z,61.42
2022-12-18T11:57:50.649Z,60.88
2022-12-18T12:00:56.673Z,62.40
2022-12-18T12:04:11.701Z,62.28
2022-12-18T12:07:35.671Z,62.18
2022-12-18T12:10:50.691Z,62.53
2022-12-18T12:13:59.655Z,63.22
2022-12-18T12:17:13.683Z,63.67
2022-12-18T12:20:23.695Z,64.50
2022-12-18T12:23:33.682Z,65.04
2022-12-18T12:26:56.679Z,65.40
2022-12-18T12:30:04.676Z,64.67
2022-12-18T12:33:17.680Z,65.00
2022-12-18T12:36:34.658Z,65.44
2022-12-18T12:39:37.667Z,67.43
2022-12-18T12:43:12.637Z,67.73
2022-12-18T12:46:15.685Z,70.37
2022-12-18T12:49:21.631Z,70.54
2022-12-18T12:52:27.674Z,72.37
2022-12-18T12:55:32.644Z,74.89
2022-12-18T12:58:48.666Z,76.22
2022-12-18T13:01:56.779Z,77.82
2022-12-18T13:05:11.666Z,78.83
2022-12-18T13:08:14.675Z,79.12
2022-12-18T13:11:32.679Z,79.18
2022-12-18T13:14:45.643Z,79.53
2022-12-18T13:17:45.674Z,82.24
2022-12-18T13:20:57.372Z,81.05
2022-12-18T13:23:59.643Z,83.17
2022-12-18T13:26:59.666Z,82.30
2022-12-18T13:30:00.676Z,84.16
2022-12-18T13:33:00.632Z,85.08
2022-12-18T13:36:00.665Z,85.73
2022-12-18T13:39:00.665Z,86.09
2022-12-18T13:42:02.682Z,85.69
2022-12-18T13:45:02.668Z,86.88
2022-12-18T13:48:02.646Z,87.18
2022-12-18T13:51:30.669Z,87.88
2022-12-18T13:54:51.633Z,88.41
2022-12-18T13:57:52.640Z,87.52
2022-12-18T14:00:56.699Z,87.12
2022-12-18T14:03:56.643Z,88.64
2022-12-18T14:06:59.670Z,88.12
2022-12-18T14:10:47.696Z,87.99
2022-12-18T14:13:51.639Z,88.49
2022-12-18T14:16:51.644Z,88.59
2022-12-18T14:19:51.645Z,88.82
2022-12-18T14:22:51.621Z,88.16
2022-12-18T14:25:51.630Z,87.62
2022-12-18T14:28:58.623Z,87.86
2022-12-18T14:31:58.607Z,88.43
2022-12-18T14:35:02.664Z,87.19
2022-12-18T14:38:02.643Z,88.39
2022-12-18T14:41:06.632Z,88.39
2022-12-18T14:44:07.672Z,88.70
2022-12-18T14:47:07.678Z,88.45
2022-12-18T14:50:07.658Z,88.31
2022-12-18T14:53:07.670Z,87.74
2022-12-18T14:56:07.649Z,89.16
2022-12-18T14:59:24.020Z,89.92
2022-12-18T15:02:42.779Z,89.76
2022-12-18T15:05:45.634Z,89.49
2022-12-18T15:08:49.636Z,89.00
2022-12-18T15:11:50.689Z,89.68
2022-12-18T15:14:54.836Z,90.08
2022-12-18T15:17:54.670Z,90.78
2022-12-18T15:20:59.685Z,90.83
2022-12-18T15:23:59.629Z,91.36
2022-12-18T15:26:59.668Z,92.42
2022-12-18T15:30:33.741Z,94.17
2022-12-18T15:33:47.660Z,93.05
2022-12-18T15:36:47.622Z,93.78
2022-12-18T15:39:47.625Z,94.26
2022-12-18T15:43:05.645Z,95.38
2022-12-18T15:46:05.737Z,95.25
2022-12-18T15:49:07.648Z,96.74
2022-12-18T15:52:09.621Z,96.90
2022-12-18T15:55:27.646Z,96.71
2022-12-18T15:58:28.657Z,96.82
2022-12-18T16:01:28.706Z,96.26
2022-12-18T16:04:30.652Z,96.46
2022-12-18T16:07:30.985Z,97.50
2022-12-18T16:10:30.659Z,98.02
2022-12-18T16:13:32.605Z,97.80
2022-12-18T16:16:32.655Z,97.45
2022-12-18T16:19:32.643Z,96.91
2022-12-18T16:22:42.666Z,96.39
2022-12-18T16:25:42.674Z,95.12
2022-12-18T16:28:48.163Z,95.65
2022-12-18T16:31:48.660Z,96.81
2022-12-18T16:34:49.648Z,96.54
2022-12-18T16:37:49.657Z,96.35
2022-12-18T16:41:09.653Z,95.86
2022-12-18T16:44:09.683Z,95.09
2022-12-18T16:47:10.250Z,95.06
2022-12-18T16:50:12.619Z,94.75
2022-12-18T16:53:12.607Z,94.03
2022-12-18T16:56:12.633Z,94.17
2022-12-18T16:59:16.614Z,93.54
2022-12-18T17:02:17.135Z,93.63
2022-12-18T17:05:18.619Z,93.97
2022-12-18T17:08:18.600Z,94.52
2022-12-18T17:11:20.617Z,93.73
2022-12-18T17:14:28.650Z,93.61
2022-12-18T17:17:28.657Z,93.13
2022-12-18T17:20:28.644Z,92.36
2022-12-18T17:23:21.719Z,91.57
2022-12-18T17:26:21.599Z,91.51
2022-12-18T17:29:21.630Z,92.09
2022-12-18T17:32:23.630Z,90.92
2022-12-18T17:35:23.616Z,91.12
2022-12-18T17:38:23.647Z,91.25
2022-12-18T17:41:24.614Z,91.54
2022-12-18T17:44:24.653Z,91.55
2022-12-18T17:47:25.590Z,91.92
2022-12-18T17:50:27.632Z,92.34
2022-12-18T17:53:27.608Z,91.85
2022-12-18T17:56:29.609Z,92.24
2022-12-18T17:59:29.604Z,92.56
2022-12-18T18:02:29.829Z,92.21
2022-12-18T18:05:30.602Z,91.92
2022-12-18T18:08:30.653Z,91.63
2022-12-18T18:11:50.638Z,91.37
2022-12-18T18:14:52.655Z,91.80
2022-12-18T18:17:52.647Z,91.34
2022-12-18T18:20:55.658Z,91.36
2022-12-18T18:23:55.608Z,91.21
2022-12-18T18:26:55.648Z,92.40
2022-12-18T18:29:55.652Z,92.20
2022-12-18T18:32:55.652Z,92.46
2022-12-18T18:35:56.633Z,93.13
2022-12-18T18:38:56.611Z,92.72
2022-12-18T18:41:56.589Z,92.91
2022-12-18T18:44:56.597Z,93.07
2022-12-18T18:47:56.645Z,93.24
2022-12-18T18:50:56.602Z,93.29
2022-12-18T18:53:58.655Z,94.13
2022-12-18T19:00:19.638Z,95.64
2022-12-18T19:03:19.672Z,96.02
2022-12-18T19:06:22.649Z,96.21
2022-12-18T19:09:23.640Z,97.52
2022-12-18T19:12:42.635Z,97.07
2022-12-18T19:15:42.626Z,97.82
2022-12-18T19:18:44.716Z,97.74
2022-12-18T19:21:44.602Z,97.51
2022-12-18T19:24:44.623Z,98.28
2022-12-18T19:27:46.629Z,98.57
2022-12-18T19:30:46.618Z,99.55
2022-12-18T19:33:51.588Z,100.00
2022-12-18T19:36:59.278Z,100.00
2022-12-18T19:39:59.638Z,100.00
2022-12-18T19:43:01.623Z,100.00
2022-12-18T19:46:08.683Z,100.00
2022-12-18T19:49:08.622Z,100.00
2022-12-18T19:52:08.633Z,100.00
2022-12-18T19:55:08.624Z,100.00
2022-12-18T19:58:08.590Z,100.00
2022-12-18T20:01:08.611Z,100.00
2022-12-18T20:04:09.650Z,100.00
2022-12-18T20:07:09.602Z,100.00
2022-12-18T20:10:09.617Z,100.00
2022-12-18T20:13:09.627Z,100.00
2022-12-18T20:16:09.614Z,100.00
2022-12-18T20:19:09.629Z,100.00
2022-12-18T20:22:09.602Z,100.00
2022-12-18T20:25:09.645Z,100.00
2022-12-18T20:28:09.614Z,100.00
2022-12-18T20:31:17.608Z,100.00
2022-12-18T20:34:17.616Z,100.00
2022-12-18T20:37:17.630Z,100.00
2022-12-18T20:40:18.627Z,100.00
2022-12-18T20:43:18.607Z,100.00
2022-12-18T20:46:21.618Z,100.00
2022-12-18T20:49:21.615Z,100.00
2022-12-18T20:52:21.603Z,100.00
2022-12-18T20:55:23.591Z,100.00
2022-12-18T20:58:23.592Z,100.00
2022-12-18T21:01:26.750Z,100.00
2022-12-18T21:04:26.591Z,100.00
2022-12-18T21:07:26.646Z,100.00
2022-12-18T21:10:26.612Z,100.00
2022-12-18T21:13:26.583Z,100.00
2022-12-18T21:16:28.622Z,100.00
2022-12-18T21:19:34.566Z,100.00
2022-12-18T21:22:34.632Z,100.00
2022-12-18T21:25:34.619Z,100.00
2022-12-18T21:28:34.607Z,100.00
2022-12-18T21:31:36.659Z,100.00
2022-12-18T21:34:43.293Z,100.00
2022-12-18T21:37:45.583Z,100.00
2022-12-18T21:40:45.609Z,100.00
2022-12-18T21:44:03.632Z,100.00
2022-12-18T21:47:12.301Z,100.00
2022-12-18T21:50:21.584Z,100.00
2022-12-18T21:53:24.576Z,100.00
2022-12-18T21:56:24.587Z,100.00
2022-12-18T21:59:26.606Z,100.00
2022-12-18T22:02:31.832Z,100.00
2022-12-18T22:05:31.621Z,100.00
2022-12-18T22:08:31.608Z,100.00
2022-12-18T22:11:31.611Z,100.00
2022-12-18T22:14:31.588Z,100.00
2022-12-18T22:17:31.606Z,100.00
2022-12-18T22:20:32.559Z,100.00
2022-12-18T22:23:32.612Z,100.00
2022-12-18T22:26:37.887Z,100.00
2022-12-18T22:29:57.591Z,100.00
2022-12-18T22:32:57.555Z,100.00
2022-12-18T22:35:57.582Z,100.00
2022-12-18T22:38:57.560Z,100.00
2022-12-18T22:41:57.627Z,100.00
2022-12-18T22:44:57.548Z,100.00
2022-12-18T22:47:57.633Z,100.00
2022-12-18T22:50:59.650Z,100.00
2022-12-18T22:53:59.607Z,100.00
2022-12-18T22:56:59.564Z,100.00
2022-12-18T22:59:59.550Z,100.00
2022-12-18T23:03:00.996Z,100.00
2022-12-18T23:06:00.553Z,100.00
2022-12-18T23:09:00.607Z,100.00
2022-12-18T23:11:54.562Z,100.00
2022-12-18T23:14:41.570Z,100.00
2022-12-18T23:17:42.590Z,100.00
2022-12-18T23:20:42.572Z,100.00
2022-12-18T23:23:42.624Z,100.00
2022-12-18T23:26:42.582Z,100.00
2022-12-18T23:29:42.583Z,100.00
2022-12-18T23:32:46.607Z,100.00
2022-12-18T23:35:46.557Z,100.00
2022-12-18T23:38:48.575Z,100.00
2022-12-18T23:41:48.577Z,100.00
2022-12-18T23:44:48.531Z,100.00
2022-12-18T23:47:51.015Z,100.00
2022-12-18T23:50:50.604Z,100.00
2022-12-18T23:53:50.562Z,100.00
2022-12-18T23:56:50.547Z,100.00
2022-12-18T23:59:50.587Z,100.00
